sensor_id;sensor_type;location;lat;lon;timestamp;pressure;altitude;pressure_sealevel;temperature;humidity
59829;BME280;45708;51.848;107.620;2022-08-16T00:02:55;93893.31;;;16.92;74.03
59829;BME280;45708;51.848;107.620;2022-08-16T00:07:57;93893.75;;;16.99;73.22
59829;BME280;45708;51.848;107.620;2022-08-16T00:13:00;93885.22;;;16.97;73.13
59829;BME280;45708;51.848;107.620;2022-08-16T00:18:01;93886.81;;;16.98;72.78
59829;BME280;45708;51.848;107.620;2022-08-16T00:23:03;93882.72;;;17.06;72.41
59829;BME280;45708;51.848;107.620;2022-08-16T00:28:05;93891.44;;;17.12;71.77
59829;BME280;45708;51.848;107.620;2022-08-16T00:33:06;93873.28;;;17.14;71.04
59829;BME280;45708;51.848;107.620;2022-08-16T00:38:08;93872.75;;;17.30;70.64
59829;BME280;45708;51.848;107.620;2022-08-16T00:43:19;93872.03;;;17.44;68.69
59829;BME280;45708;51.848;107.620;2022-08-16T00:48:20;93883.75;;;18.81;67.04
59829;BME280;45708;51.848;107.620;2022-08-16T00:53:21;93884.28;;;21.28;60.36
59829;BME280;45708;51.848;107.620;2022-08-16T00:58:25;93884.22;;;23.08;53.05
59829;BME280;45708;51.848;107.620;2022-08-16T01:03:27;93886.97;;;24.37;49.84
59829;BME280;45708;51.848;107.620;2022-08-16T01:08:28;93873.50;;;24.49;48.37
59829;BME280;45708;51.848;107.620;2022-08-16T01:13:31;93860.28;;;24.23;47.21
59829;BME280;45708;51.848;107.620;2022-08-16T01:18:40;93857.44;;;25.26;44.11
59829;BME280;45708;51.848;107.620;2022-08-16T01:29:43;93863.69;;;27.01;40.57
59829;BME280;45708;51.848;107.620;2022-08-16T01:34:46;93857.94;;;28.54;38.31
59829;BME280;45708;51.848;107.620;2022-08-16T01:39:47;93876.00;;;26.07;41.23
59829;BME280;45708;51.848;107.620;2022-08-16T01:44:48;93867.72;;;24.26;44.31
59829;BME280;45708;51.848;107.620;2022-08-16T01:49:49;93853.63;;;24.20;44.14
59829;BME280;45708;51.848;107.620;2022-08-16T01:54:50;93854.44;;;26.71;39.49
59829;BME280;45708;51.848;107.620;2022-08-16T01:59:51;93861.09;;;27.59;38.02
59829;BME280;45708;51.848;107.620;2022-08-16T02:04:52;93857.38;;;27.48;37.77
59829;BME280;45708;51.848;107.620;2022-08-16T02:09:53;93854.69;;;28.44;35.61
59829;BME280;45708;51.848;107.620;2022-08-16T02:14:54;93848.50;;;29.20;33.75
59829;BME280;45708;51.848;107.620;2022-08-16T02:19:56;93853.41;;;28.84;32.98
59829;BME280;45708;51.848;107.620;2022-08-16T02:24:57;93853.13;;;28.24;33.57
59829;BME280;45708;51.848;107.620;2022-08-16T02:29:58;93852.38;;;28.46;33.57
59829;BME280;45708;51.848;107.620;2022-08-16T02:34:59;93830.31;;;28.97;32.56
59829;BME280;45708;51.848;107.620;2022-08-16T02:40:00;93819.56;;;29.04;31.36
59829;BME280;45708;51.848;107.620;2022-08-16T02:45:01;93805.13;;;28.28;32.28
59829;BME280;45708;51.848;107.620;2022-08-16T02:50:03;93817.16;;;26.99;34.22
59829;BME280;45708;51.848;107.620;2022-08-16T02:55:05;93808.41;;;26.55;34.84
59829;BME280;45708;51.848;107.620;2022-08-16T03:00:08;93815.56;;;26.47;34.42
59829;BME280;45708;51.848;107.620;2022-08-16T03:05:12;93816.16;;;26.25;34.46
59829;BME280;45708;51.848;107.620;2022-08-16T03:10:13;93829.56;;;26.05;33.74
59829;BME280;45708;51.848;107.620;2022-08-16T03:15:15;93813.50;;;25.29;33.56
59829;BME280;45708;51.848;107.620;2022-08-16T03:20:16;93809.31;;;24.21;35.25
59829;BME280;45708;51.848;107.620;2022-08-16T03:25:17;93795.41;;;23.53;36.20
59829;BME280;45708;51.848;107.620;2022-08-16T03:30:25;93794.88;;;23.06;36.15
59829;BME280;45708;51.848;107.620;2022-08-16T03:35:28;93788.06;;;23.00;36.09
59829;BME280;45708;51.848;107.620;2022-08-16T03:40:33;93772.00;;;22.91;35.87
59829;BME280;45708;51.848;107.620;2022-08-16T03:45:36;93759.44;;;22.95;35.88
59829;BME280;45708;51.848;107.620;2022-08-16T03:50:37;93754.66;;;23.01;35.91
59829;BME280;45708;51.848;107.620;2022-08-16T03:55:38;93756.56;;;23.00;36.04
59829;BME280;45708;51.848;107.620;2022-08-16T04:00:38;93743.66;;;23.27;35.78
59829;BME280;45708;51.848;107.620;2022-08-16T04:05:43;93749.84;;;23.27;35.98
59829;BME280;45708;51.848;107.620;2022-08-16T04:10:44;93742.50;;;23.16;35.52
59829;BME280;45708;51.848;107.620;2022-08-16T04:15:45;93724.09;;;22.76;35.58
59829;BME280;45708;51.848;107.620;2022-08-16T04:20:46;93727.19;;;22.66;35.53
59829;BME280;45708;51.848;107.620;2022-08-16T04:25:47;93724.75;;;22.73;35.28
59829;BME280;45708;51.848;107.620;2022-08-16T04:30:47;93712.78;;;22.62;35.75
59829;BME280;45708;51.848;107.620;2022-08-16T04:35:48;93699.47;;;22.65;35.88
59829;BME280;45708;51.848;107.620;2022-08-16T04:40:49;93652.66;;;22.58;35.61
59829;BME280;45708;51.848;107.620;2022-08-16T04:45:50;93694.81;;;22.74;35.49
59829;BME280;45708;51.848;107.620;2022-08-16T04:50:51;93699.53;;;22.98;34.92
59829;BME280;45708;51.848;107.620;2022-08-16T04:55:52;93703.34;;;22.97;34.48
59829;BME280;45708;51.848;107.620;2022-08-16T05:00:52;93693.34;;;22.77;34.98
59829;BME280;45708;51.848;107.620;2022-08-16T05:05:54;93713.66;;;22.95;34.57
59829;BME280;45708;51.848;107.620;2022-08-16T05:10:57;93713.66;;;22.95;34.67
59829;BME280;45708;51.848;107.620;2022-08-16T05:15:58;93705.59;;;22.95;35.27
59829;BME280;45708;51.848;107.620;2022-08-16T05:20:59;93701.38;;;23.06;34.92
59829;BME280;45708;51.848;107.620;2022-08-16T05:25:59;93680.06;;;23.14;34.44
59829;BME280;45708;51.848;107.620;2022-08-16T05:31:00;93689.13;;;23.30;34.21
59829;BME280;45708;51.848;107.620;2022-08-16T05:36:01;93688.06;;;23.22;33.97
59829;BME280;45708;51.848;107.620;2022-08-16T05:41:03;93688.38;;;23.54;33.33
59829;BME280;45708;51.848;107.620;2022-08-16T05:46:04;93692.75;;;23.46;33.13
59829;BME280;45708;51.848;107.620;2022-08-16T05:51:05;93681.97;;;23.46;33.50
59829;BME280;45708;51.848;107.620;2022-08-16T05:56:06;93667.88;;;23.61;33.60
59829;BME280;45708;51.848;107.620;2022-08-16T06:01:07;93664.56;;;23.56;34.06
59829;BME280;45708;51.848;107.620;2022-08-16T06:06:08;93664.88;;;23.30;33.60
59829;BME280;45708;51.848;107.620;2022-08-16T06:11:09;93651.16;;;23.23;33.86
59829;BME280;45708;51.848;107.620;2022-08-16T06:16:10;93671.19;;;23.46;33.42
59829;BME280;45708;51.848;107.620;2022-08-16T06:21:12;93668.69;;;23.41;33.46
59829;BME280;45708;51.848;107.620;2022-08-16T06:26:13;93678.88;;;23.56;33.44
59829;BME280;45708;51.848;107.620;2022-08-16T06:31:14;93673.16;;;23.58;32.82
59829;BME280;45708;51.848;107.620;2022-08-16T06:36:15;93680.22;;;23.62;32.63
59829;BME280;45708;51.848;107.620;2022-08-16T06:41:17;93679.31;;;23.58;32.18
59829;BME280;45708;51.848;107.620;2022-08-16T06:46:26;93681.75;;;24.09;31.68
59829;BME280;45708;51.848;107.620;2022-08-16T06:51:27;93677.59;;;24.23;30.81
59829;BME280;45708;51.848;107.620;2022-08-16T06:56:28;93678.63;;;23.49;32.03
59829;BME280;45708;51.848;107.620;2022-08-16T07:01:29;93672.38;;;22.91;33.81
59829;BME280;45708;51.848;107.620;2022-08-16T07:06:30;93690.47;;;23.24;34.27
59829;BME280;45708;51.848;107.620;2022-08-16T07:11:31;93691.88;;;23.21;34.99
59829;BME280;45708;51.848;107.620;2022-08-16T07:16:33;93672.22;;;23.09;35.41
59829;BME280;45708;51.848;107.620;2022-08-16T07:21:34;93670.81;;;23.02;35.23
59829;BME280;45708;51.848;107.620;2022-08-16T07:26:36;93649.00;;;22.83;35.57
59829;BME280;45708;51.848;107.620;2022-08-16T07:31:38;93666.56;;;23.01;35.88
59829;BME280;45708;51.848;107.620;2022-08-16T07:36:39;93659.69;;;23.25;35.27
59829;BME280;45708;51.848;107.620;2022-08-16T07:41:40;93671.94;;;23.01;35.82
59829;BME280;45708;51.848;107.620;2022-08-16T07:46:41;93667.81;;;23.04;36.04
59829;BME280;45708;51.848;107.620;2022-08-16T07:51:42;93654.03;;;23.05;35.91
59829;BME280;45708;51.848;107.620;2022-08-16T07:56:43;93657.91;;;22.75;35.90
59829;BME280;45708;51.848;107.620;2022-08-16T08:01:44;93667.16;;;22.44;36.29
59829;BME280;45708;51.848;107.620;2022-08-16T08:06:45;93663.00;;;22.26;37.31
59829;BME280;45708;51.848;107.620;2022-08-16T08:11:45;93664.59;;;22.27;37.82
59829;BME280;45708;51.848;107.620;2022-08-16T08:16:46;93664.56;;;21.98;38.64
59829;BME280;45708;51.848;107.620;2022-08-16T08:21:47;93666.13;;;21.69;38.96
59829;BME280;45708;51.848;107.620;2022-08-16T08:26:48;93673.09;;;21.70;38.50
59829;BME280;45708;51.848;107.620;2022-08-16T08:31:50;93674.72;;;21.54;38.65
59829;BME280;45708;51.848;107.620;2022-08-16T08:36:51;93671.19;;;21.62;38.62
59829;BME280;45708;51.848;107.620;2022-08-16T08:41:52;93660.38;;;21.79;38.39
59829;BME280;45708;51.848;107.620;2022-08-16T08:46:53;93641.63;;;21.62;38.03
59829;BME280;45708;51.848;107.620;2022-08-16T08:51:54;93668.34;;;21.67;38.15
59829;BME280;45708;51.848;107.620;2022-08-16T08:56:55;93673.41;;;22.07;37.38
59829;BME280;45708;51.848;107.620;2022-08-16T09:01:57;93648.94;;;22.21;36.60
59829;BME280;45708;51.848;107.620;2022-08-16T09:06:57;93650.41;;;22.18;36.42
59829;BME280;45708;51.848;107.620;2022-08-16T09:11:58;93649.94;;;22.16;36.66
59829;BME280;45708;51.848;107.620;2022-08-16T09:16:59;93636.50;;;22.16;36.44
59829;BME280;45708;51.848;107.620;2022-08-16T09:22:00;93643.78;;;22.36;36.14
59829;BME280;45708;51.848;107.620;2022-08-16T09:27:01;93636.38;;;22.04;36.28
59829;BME280;45708;51.848;107.620;2022-08-16T09:32:03;93656.56;;;21.89;36.79
59829;BME280;45708;51.848;107.620;2022-08-16T09:37:04;93640.19;;;21.73;36.56
59829;BME280;45708;51.848;107.620;2022-08-16T09:42:05;93651.38;;;21.84;36.09
59829;BME280;45708;51.848;107.620;2022-08-16T09:47:05;93641.94;;;21.99;35.47
59829;BME280;45708;51.848;107.620;2022-08-16T09:52:07;93631.00;;;21.74;35.56
59829;BME280;45708;51.848;107.620;2022-08-16T09:57:09;93636.50;;;21.40;35.83
59829;BME280;45708;51.848;107.620;2022-08-16T10:02:09;93634.13;;;20.83;36.46
59829;BME280;45708;51.848;107.620;2022-08-16T10:07:10;93640.75;;;20.59;37.00
59829;BME280;45708;51.848;107.620;2022-08-16T10:12:12;93638.56;;;20.44;36.49
59829;BME280;45708;51.848;107.620;2022-08-16T10:17:13;93642.59;;;20.33;36.03
59829;BME280;45708;51.848;107.620;2022-08-16T10:22:13;93618.47;;;20.07;36.26
59829;BME280;45708;51.848;107.620;2022-08-16T10:27:14;93619.06;;;19.95;36.43
59829;BME280;45708;51.848;107.620;2022-08-16T10:32:15;93623.78;;;19.90;36.00
59829;BME280;45708;51.848;107.620;2022-08-16T10:37:16;93638.38;;;19.66;36.46
59829;BME280;45708;51.848;107.620;2022-08-16T10:42:17;93646.50;;;19.53;36.74
59829;BME280;45708;51.848;107.620;2022-08-16T10:47:19;93664.44;;;19.43;37.44
59829;BME280;45708;51.848;107.620;2022-08-16T10:52:20;93660.91;;;19.34;38.36
59829;BME280;45708;51.848;107.620;2022-08-16T10:57:21;93666.94;;;19.18;39.10
59829;BME280;45708;51.848;107.620;2022-08-16T11:02:22;93671.16;;;19.10;39.25
59829;BME280;45708;51.848;107.620;2022-08-16T11:07:23;93672.91;;;19.14;39.56
59829;BME280;45708;51.848;107.620;2022-08-16T11:12:24;93664.25;;;19.09;39.60
59829;BME280;45708;51.848;107.620;2022-08-16T11:17:25;93642.16;;;18.81;40.22
59829;BME280;45708;51.848;107.620;2022-08-16T11:22:26;93679.44;;;18.77;40.64
59829;BME280;45708;51.848;107.620;2022-08-16T11:27:27;93670.28;;;18.56;41.01
59829;BME280;45708;51.848;107.620;2022-08-16T11:32:28;93674.53;;;18.57;41.09
59829;BME280;45708;51.848;107.620;2022-08-16T11:37:29;93673.56;;;18.53;41.42
59829;BME280;45708;51.848;107.620;2022-08-16T11:42:30;93669.28;;;18.30;42.03
59829;BME280;45708;51.848;107.620;2022-08-16T11:47:31;93670.94;;;18.03;42.82
59829;BME280;45708;51.848;107.620;2022-08-16T11:52:32;93685.19;;;17.85;43.29
59829;BME280;45708;51.848;107.620;2022-08-16T11:57:33;93704.19;;;17.70;43.61
59829;BME280;45708;51.848;107.620;2022-08-16T12:02:34;93700.00;;;17.50;43.64
59829;BME280;45708;51.848;107.620;2022-08-16T12:07:36;93694.13;;;17.34;43.59
59829;BME280;45708;51.848;107.620;2022-08-16T12:12:36;93710.53;;;17.27;43.34
59829;BME280;45708;51.848;107.620;2022-08-16T12:17:38;93714.56;;;17.11;43.60
59829;BME280;45708;51.848;107.620;2022-08-16T12:22:39;93726.34;;;16.91;43.84
59829;BME280;45708;51.848;107.620;2022-08-16T12:27:41;93716.41;;;16.78;43.75
59829;BME280;45708;51.848;107.620;2022-08-16T12:32:42;93729.25;;;16.76;43.85
59829;BME280;45708;51.848;107.620;2022-08-16T12:37:44;93678.53;;;16.43;44.24
59829;BME280;45708;51.848;107.620;2022-08-16T12:42:49;93713.09;;;16.49;44.44
59829;BME280;45708;51.848;107.620;2022-08-16T12:47:51;93735.06;;;16.40;44.92
59829;BME280;45708;51.848;107.620;2022-08-16T12:52:52;93744.78;;;16.31;44.85
59829;BME280;45708;51.848;107.620;2022-08-16T12:57:54;93728.47;;;16.14;45.21
59829;BME280;45708;51.848;107.620;2022-08-16T13:02:58;93706.97;;;16.10;44.99
59829;BME280;45708;51.848;107.620;2022-08-16T13:08:00;93712.81;;;16.31;44.98
59829;BME280;45708;51.848;107.620;2022-08-16T13:13:00;93716.56;;;16.30;45.04
59829;BME280;45708;51.848;107.620;2022-08-16T13:18:02;93729.59;;;16.32;45.43
59829;BME280;45708;51.848;107.620;2022-08-16T13:23:06;93719.78;;;16.27;45.56
59829;BME280;45708;51.848;107.620;2022-08-16T13:28:07;93742.53;;;16.20;46.05
59829;BME280;45708;51.848;107.620;2022-08-16T13:33:11;93718.41;;;16.11;47.27
59829;BME280;45708;51.848;107.620;2022-08-16T13:38:14;93728.16;;;15.97;47.25
59829;BME280;45708;51.848;107.620;2022-08-16T13:43:16;93722.13;;;15.67;48.15
59829;BME280;45708;51.848;107.620;2022-08-16T13:48:17;93773.00;;;15.66;49.35
59829;BME280;45708;51.848;107.620;2022-08-16T13:53:18;93768.97;;;15.68;50.32
59829;BME280;45708;51.848;107.620;2022-08-16T13:58:19;93772.22;;;15.60;50.68
59829;BME280;45708;51.848;107.620;2022-08-16T14:03:20;93785.34;;;15.51;51.35
59829;BME280;45708;51.848;107.620;2022-08-16T14:08:21;93783.09;;;15.35;51.63
59829;BME280;45708;51.848;107.620;2022-08-16T14:13:23;93811.06;;;15.32;52.52
59829;BME280;45708;51.848;107.620;2022-08-16T14:18:24;93814.69;;;15.41;52.48
59829;BME280;45708;51.848;107.620;2022-08-16T14:23:25;93820.28;;;15.45;52.99
59829;BME280;45708;51.848;107.620;2022-08-16T14:28:26;93830.94;;;15.40;53.16
59829;BME280;45708;51.848;107.620;2022-08-16T14:33:27;93857.84;;;15.38;52.98
59829;BME280;45708;51.848;107.620;2022-08-16T14:38:27;93864.59;;;15.26;53.55
59829;BME280;45708;51.848;107.620;2022-08-16T14:43:28;93883.22;;;15.26;53.91
59829;BME280;45708;51.848;107.620;2022-08-16T14:48:30;93883.78;;;15.17;54.12
59829;BME280;45708;51.848;107.620;2022-08-16T14:53:31;93891.53;;;15.14;54.48
59829;BME280;45708;51.848;107.620;2022-08-16T14:58:32;93899.06;;;15.02;54.87
59829;BME280;45708;51.848;107.620;2022-08-16T15:03:33;93887.19;;;14.84;55.45
59829;BME280;45708;51.848;107.620;2022-08-16T15:08:33;93896.28;;;14.73;55.81
59829;BME280;45708;51.848;107.620;2022-08-16T15:13:34;93910.16;;;14.65;55.99
59829;BME280;45708;51.848;107.620;2022-08-16T15:18:35;93907.78;;;14.58;56.48
59829;BME280;45708;51.848;107.620;2022-08-16T15:23:36;93914.44;;;14.40;56.57
59829;BME280;45708;51.848;107.620;2022-08-16T15:28:37;93916.63;;;14.28;57.10
59829;BME280;45708;51.848;107.620;2022-08-16T15:33:42;93916.06;;;14.31;58.16
59829;BME280;45708;51.848;107.620;2022-08-16T15:38:46;93909.97;;;14.30;57.63
59829;BME280;45708;51.848;107.620;2022-08-16T15:43:48;93903.34;;;14.18;57.97
59829;BME280;45708;51.848;107.620;2022-08-16T15:48:48;93908.16;;;14.16;58.16
59829;BME280;45708;51.848;107.620;2022-08-16T15:53:50;93921.41;;;14.21;58.15
59829;BME280;45708;51.848;107.620;2022-08-16T15:58:50;93922.50;;;14.15;58.57
59829;BME280;45708;51.848;107.620;2022-08-16T16:03:51;93918.25;;;14.09;58.63
59829;BME280;45708;51.848;107.620;2022-08-16T16:08:52;93915.09;;;14.02;59.33
59829;BME280;45708;51.848;107.620;2022-08-16T16:13:53;93893.59;;;13.93;59.66
59829;BME280;45708;51.848;107.620;2022-08-16T16:18:54;93908.72;;;13.97;59.89
59829;BME280;45708;51.848;107.620;2022-08-16T16:23:54;93906.31;;;13.96;59.87
59829;BME280;45708;51.848;107.620;2022-08-16T16:28:55;93911.63;;;14.01;59.51
59829;BME280;45708;51.848;107.620;2022-08-16T16:33:56;93907.38;;;14.05;59.46
59829;BME280;45708;51.848;107.620;2022-08-16T16:39:02;93889.06;;;14.04;59.00
59829;BME280;45708;51.848;107.620;2022-08-16T16:44:04;93906.25;;;14.21;59.09
59829;BME280;45708;51.848;107.620;2022-08-16T16:49:06;93901.78;;;14.22;59.16
59829;BME280;45708;51.848;107.620;2022-08-16T16:54:08;93894.88;;;14.11;58.89
59829;BME280;45708;51.848;107.620;2022-08-16T16:59:09;93895.69;;;14.11;59.15
59829;BME280;45708;51.848;107.620;2022-08-16T17:04:12;93889.59;;;14.00;59.35
59829;BME280;45708;51.848;107.620;2022-08-16T17:09:13;93890.66;;;14.05;59.22
59829;BME280;45708;51.848;107.620;2022-08-16T17:14:14;93882.69;;;13.99;59.01
59829;BME280;45708;51.848;107.620;2022-08-16T17:19:15;93894.38;;;13.93;59.46
59829;BME280;45708;51.848;107.620;2022-08-16T17:24:16;93903.44;;;13.82;59.63
59829;BME280;45708;51.848;107.620;2022-08-16T17:29:17;93909.53;;;13.57;60.75
59829;BME280;45708;51.848;107.620;2022-08-16T17:34:18;93913.25;;;13.41;61.22
59829;BME280;45708;51.848;107.620;2022-08-16T17:39:18;93918.28;;;13.37;61.11
59829;BME280;45708;51.848;107.620;2022-08-16T17:44:19;93916.72;;;13.26;61.28
59829;BME280;45708;51.848;107.620;2022-08-16T17:49:21;93924.09;;;13.19;61.52
59829;BME280;45708;51.848;107.620;2022-08-16T17:54:22;93929.91;;;13.11;62.02
59829;BME280;45708;51.848;107.620;2022-08-16T17:59:22;93916.59;;;12.96;62.82
59829;BME280;45708;51.848;107.620;2022-08-16T18:04:24;93913.16;;;12.90;63.25
59829;BME280;45708;51.848;107.620;2022-08-16T18:09:25;93910.78;;;12.89;63.32
59829;BME280;45708;51.848;107.620;2022-08-16T18:14:26;93908.91;;;12.84;63.72
59829;BME280;45708;51.848;107.620;2022-08-16T18:19:27;93921.84;;;12.75;63.70
59829;BME280;45708;51.848;107.620;2022-08-16T18:24:28;93922.09;;;12.69;63.74
59829;BME280;45708;51.848;107.620;2022-08-16T18:29:29;93922.38;;;12.62;64.38
59829;BME280;45708;51.848;107.620;2022-08-16T18:34:29;93943.97;;;12.39;64.78
59829;BME280;45708;51.848;107.620;2022-08-16T18:39:31;93947.63;;;12.28;65.18
59829;BME280;45708;51.848;107.620;2022-08-16T18:44:37;93941.69;;;12.10;66.15
59829;BME280;45708;51.848;107.620;2022-08-16T18:49:38;93943.81;;;12.08;66.02
59829;BME280;45708;51.848;107.620;2022-08-16T18:54:39;93949.03;;;11.98;66.13
59829;BME280;45708;51.848;107.620;2022-08-16T18:59:40;93948.47;;;11.91;65.70
59829;BME280;45708;51.848;107.620;2022-08-16T19:04:41;93953.97;;;11.84;65.98
59829;BME280;45708;51.848;107.620;2022-08-16T19:09:42;93948.53;;;11.69;66.27
59829;BME280;45708;51.848;107.620;2022-08-16T19:14:42;93949.50;;;11.58;66.37
59829;BME280;45708;51.848;107.620;2022-08-16T19:19:43;93948.09;;;11.45;66.47
59829;BME280;45708;51.848;107.620;2022-08-16T19:24:44;93936.78;;;11.23;67.48
59829;BME280;45708;51.848;107.620;2022-08-16T19:29:45;93955.03;;;11.24;67.72
59829;BME280;45708;51.848;107.620;2022-08-16T19:34:46;93957.94;;;11.23;68.08
59829;BME280;45708;51.848;107.620;2022-08-16T19:39:47;93962.44;;;11.22;68.01
59829;BME280;45708;51.848;107.620;2022-08-16T19:44:51;93970.41;;;11.27;67.98
59829;BME280;45708;51.848;107.620;2022-08-16T19:49:52;93971.69;;;11.25;68.54
59829;BME280;45708;51.848;107.620;2022-08-16T19:54:57;93964.94;;;11.12;69.17
59829;BME280;45708;51.848;107.620;2022-08-16T19:59:58;93960.22;;;11.14;68.84
59829;BME280;45708;51.848;107.620;2022-08-16T20:05:01;93947.16;;;11.03;69.13
59829;BME280;45708;51.848;107.620;2022-08-16T20:10:03;93966.38;;;10.98;69.18
59829;BME280;45708;51.848;107.620;2022-08-16T20:15:07;93946.50;;;10.90;69.63
59829;BME280;45708;51.848;107.620;2022-08-16T20:20:09;93956.94;;;11.02;68.98
59829;BME280;45708;51.848;107.620;2022-08-16T20:25:13;93954.34;;;11.07;69.52
59829;BME280;45708;51.848;107.620;2022-08-16T20:30:16;93947.25;;;11.13;69.36
59829;BME280;45708;51.848;107.620;2022-08-16T20:35:21;93955.13;;;11.08;70.18
59829;BME280;45708;51.848;107.620;2022-08-16T20:40:24;93955.09;;;11.03;69.55
59829;BME280;45708;51.848;107.620;2022-08-16T20:45:25;93952.44;;;11.03;69.76
59829;BME280;45708;51.848;107.620;2022-08-16T20:50:26;93958.81;;;11.07;70.08
59829;BME280;45708;51.848;107.620;2022-08-16T20:55:28;93959.72;;;11.17;71.16
59829;BME280;45708;51.848;107.620;2022-08-16T21:00:29;93955.84;;;11.25;71.75
59829;BME280;45708;51.848;107.620;2022-08-16T21:05:30;93962.72;;;11.26;71.98
59829;BME280;45708;51.848;107.620;2022-08-16T21:10:31;93946.75;;;11.16;72.29
59829;BME280;45708;51.848;107.620;2022-08-16T21:15:32;93957.81;;;11.13;72.53
59829;BME280;45708;51.848;107.620;2022-08-16T21:20:33;93959.88;;;11.06;72.73
59829;BME280;45708;51.848;107.620;2022-08-16T21:25:36;93965.88;;;11.01;73.33
59829;BME280;45708;51.848;107.620;2022-08-16T21:30:38;93947.75;;;10.83;73.33
59829;BME280;45708;51.848;107.620;2022-08-16T21:35:41;93968.38;;;10.86;73.62
59829;BME280;45708;51.848;107.620;2022-08-16T21:40:42;93973.38;;;10.82;72.95
59829;BME280;45708;51.848;107.620;2022-08-16T21:45:44;93985.41;;;10.73;72.33
59829;BME280;45708;51.848;107.620;2022-08-16T21:50:45;93984.00;;;10.65;72.62
59829;BME280;45708;51.848;107.620;2022-08-16T21:55:50;93989.28;;;10.65;72.69
59829;BME280;45708;51.848;107.620;2022-08-16T22:00:52;93993.47;;;10.61;71.99
59829;BME280;45708;51.848;107.620;2022-08-16T22:05:53;93999.03;;;10.65;71.18
59829;BME280;45708;51.848;107.620;2022-08-16T22:10:54;94001.31;;;10.56;72.01
59829;BME280;45708;51.848;107.620;2022-08-16T22:15:55;94015.84;;;10.59;71.38
59829;BME280;45708;51.848;107.620;2022-08-16T22:20:56;94008.63;;;10.71;71.40
59829;BME280;45708;51.848;107.620;2022-08-16T22:25:56;93998.13;;;10.76;71.72
59829;BME280;45708;51.848;107.620;2022-08-16T22:30:58;94015.97;;;11.13;72.17
59829;BME280;45708;51.848;107.620;2022-08-16T22:36:00;94030.50;;;11.37;72.02
59829;BME280;45708;51.848;107.620;2022-08-16T22:41:03;94030.63;;;12.06;71.86
59829;BME280;45708;51.848;107.620;2022-08-16T22:46:04;94030.06;;;14.02;67.53
59829;BME280;45708;51.848;107.620;2022-08-16T22:51:05;94022.47;;;15.55;63.09
59829;BME280;45708;51.848;107.620;2022-08-16T22:56:06;94037.56;;;16.96;60.26
59829;BME280;45708;51.848;107.620;2022-08-16T23:01:08;94025.28;;;17.43;58.72
59829;BME280;45708;51.848;107.620;2022-08-16T23:06:10;94035.63;;;18.24;56.84
59829;BME280;45708;51.848;107.620;2022-08-16T23:11:16;94028.69;;;18.37;55.72
59829;BME280;45708;51.848;107.620;2022-08-16T23:16:18;94034.66;;;17.83;57.93
59829;BME280;45708;51.848;107.620;2022-08-16T23:21:19;94035.19;;;17.80;57.87
59829;BME280;45708;51.848;107.620;2022-08-16T23:26:20;94017.41;;;18.27;56.41
59829;BME280;45708;51.848;107.620;2022-08-16T23:31:21;94032.91;;;19.94;52.86
59829;BME280;45708;51.848;107.620;2022-08-16T23:36:22;94032.28;;;22.01;47.64
59829;BME280;45708;51.848;107.620;2022-08-16T23:41:23;94030.97;;;22.93;45.21
59829;BME280;45708;51.848;107.620;2022-08-16T23:46:24;94036.03;;;23.03;44.47
59829;BME280;45708;51.848;107.620;2022-08-16T23:51:25;94046.09;;;23.24;43.43
59829;BME280;45708;51.848;107.620;2022-08-16T23:56:26;94036.25;;;23.87;41.61
